createdAt,value
2018-09-18T00:02:19.490Z,101028.54
2018-09-18T00:04:48.069Z,101035.80
2018-09-18T00:07:16.964Z,101023.03
2018-09-18T00:09:45.462Z,101025.45
2018-09-18T00:12:14.074Z,101021.85
2018-09-18T00:14:42.580Z,101019.02
2018-09-18T00:17:11.117Z,101018.95
2018-09-18T00:19:39.643Z,101017.16
2018-09-18T00:22:08.237Z,101016.42
2018-09-18T00:24:36.764Z,101017.38
2018-09-18T00:27:05.346Z,101015.71
2018-09-18T00:29:33.957Z,101013.42
2018-09-18T00:32:02.660Z,101019.97
2018-09-18T00:34:31.407Z,101015.28
2018-09-18T00:37:00.050Z,101009.17
2018-09-18T00:39:28.589Z,101003.38
2018-09-18T00:41:57.152Z,101006.41
2018-09-18T00:44:25.681Z,101002.20
2018-09-18T00:46:54.222Z,100998.91
2018-09-18T00:49:22.925Z,100999.85
2018-09-18T00:51:51.432Z,100995.67
2018-09-18T00:54:19.946Z,100997.50
2018-09-18T00:56:48.506Z,100996.52
2018-09-18T00:59:17.010Z,100994.74
2018-09-18T01:01:45.533Z,100992.19
2018-09-18T01:04:14.085Z,100995.38
2018-09-18T01:06:42.661Z,100988.76
2018-09-18T01:09:11.565Z,100987.59
2018-09-18T01:11:40.493Z,100989.06
2018-09-18T01:14:09.010Z,100985.16
2018-09-18T01:16:37.905Z,100980.75
2018-09-18T01:19:06.612Z,100976.63
2018-09-18T01:21:35.143Z,100980.09
2018-09-18T01:24:03.760Z,100976.21
2018-09-18T01:26:32.268Z,100972.52
2018-09-18T01:29:00.846Z,100975.95
2018-09-18T01:31:29.695Z,100973.82
2018-09-18T01:33:58.217Z,100971.47
2018-09-18T01:36:26.789Z,100967.51
2018-09-18T01:38:55.394Z,100967.83
2018-09-18T01:41:23.956Z,100965.58
2018-09-18T01:43:52.547Z,100966.94
2018-09-18T01:46:22.184Z,100959.52
2018-09-18T01:48:50.791Z,100965.63
2018-09-18T01:51:19.314Z,100956.84
2018-09-18T01:53:47.824Z,100957.25
2018-09-18T01:56:16.465Z,100963.56
2018-09-18T01:58:45.032Z,100952.94
2018-09-18T02:01:14.350Z,100955.89
2018-09-18T02:03:43.087Z,100953.86
2018-09-18T02:06:11.624Z,100950.05
2018-09-18T02:08:40.212Z,100945.61
2018-09-18T02:11:08.669Z,100946.38
2018-09-18T02:13:37.177Z,100946.31
2018-09-18T02:16:05.717Z,100944.72
2018-09-18T02:18:34.214Z,100942.78
2018-09-18T02:21:02.772Z,100941.36
2018-09-18T02:23:31.676Z,100948.41
2018-09-18T02:26:00.151Z,100938.31
2018-09-18T02:28:28.918Z,100942.44
2018-09-18T02:30:58.266Z,100933.56
2018-09-18T02:33:26.982Z,100933.81
2018-09-18T02:35:55.506Z,100931.10
2018-09-18T02:38:24.212Z,100936.41
2018-09-18T02:40:52.724Z,100925.72
2018-09-18T02:43:21.505Z,100927.28
2018-09-18T02:45:50.016Z,100926.94
2018-09-18T02:48:18.706Z,100926.14
2018-09-18T02:50:47.176Z,100924.02
2018-09-18T02:53:15.690Z,100917.70
2018-09-18T02:55:44.200Z,100911.02
2018-09-18T02:58:12.932Z,100910.08
2018-09-18T03:00:41.526Z,100904.32
2018-09-18T03:03:10.008Z,100904.19
2018-09-18T03:05:38.519Z,100907.42
2018-09-18T03:08:07.592Z,100900.73
2018-09-18T03:10:36.100Z,100901.90
2018-09-18T03:13:04.636Z,100903.84
2018-09-18T03:15:33.229Z,100892.02
2018-09-18T03:18:01.824Z,100897.80
2018-09-18T03:20:30.337Z,100901.44
2018-09-18T03:22:58.900Z,100895.06
2018-09-18T03:25:27.409Z,100888.97
2018-09-18T03:27:55.976Z,100884.45
2018-09-18T03:30:24.959Z,100883.31
2018-09-18T03:32:53.533Z,100876.42
2018-09-18T03:35:22.025Z,100873.89
2018-09-18T03:37:50.578Z,100876.63
2018-09-18T03:40:19.128Z,100869.29
2018-09-18T03:42:47.733Z,100863.80
2018-09-18T03:45:16.264Z,100862.84
2018-09-18T03:47:44.872Z,100855.50
2018-09-18T03:50:13.399Z,100855.24
2018-09-18T03:52:41.893Z,100851.69
2018-09-18T03:55:10.428Z,100852.33
2018-09-18T03:57:39.222Z,100855.08
2018-09-18T04:00:07.962Z,100851.83
2018-09-18T04:02:36.483Z,100852.06
2018-09-18T04:05:05.481Z,100848.38
2018-09-18T04:07:34.140Z,100845.16
2018-09-18T04:10:02.638Z,100838.02
2018-09-18T04:12:33.260Z,100839.62
2018-09-18T04:15:01.971Z,100838.23
2018-09-18T04:17:30.673Z,100840.75
2018-09-18T04:19:59.244Z,100829.93
2018-09-18T04:22:27.748Z,100829.89
2018-09-18T04:24:56.274Z,100831.65
2018-09-18T04:27:24.788Z,100832.72
2018-09-18T04:29:53.320Z,100829.52
2018-09-18T04:32:21.839Z,100822.19
2018-09-18T04:34:51.407Z,100820.50
2018-09-18T04:37:20.010Z,100822.34
2018-09-18T04:39:48.685Z,100820.83
2018-09-18T04:42:17.195Z,100816.42
2018-09-18T04:44:45.751Z,100816.19
2018-09-18T04:47:14.538Z,100806.92
2018-09-18T04:49:43.306Z,100819.77
2018-09-18T04:52:11.846Z,100815.56
2018-09-18T04:54:40.422Z,100817.76
2018-09-18T04:57:09.024Z,100820.39
2018-09-18T04:59:37.672Z,100812.52
2018-09-18T05:02:06.384Z,100817.78
2018-09-18T05:04:35.201Z,100818.31
2018-09-18T05:07:03.705Z,100818.31
2018-09-18T05:09:32.309Z,100818.31
2018-09-18T05:12:00.872Z,100808.79
2018-09-18T05:14:29.379Z,100814.30
2018-09-18T05:16:58.117Z,100809.35
2018-09-18T05:19:26.633Z,100806.58
2018-09-18T05:21:55.244Z,100806.95
2018-09-18T05:24:23.828Z,100806.50
2018-09-18T05:26:52.354Z,100805.26
2018-09-18T05:29:20.940Z,100804.27
2018-09-18T05:31:49.530Z,100805.89
2018-09-18T05:34:18.389Z,100800.27
2018-09-18T05:36:46.938Z,100811.45
2018-09-18T05:39:15.497Z,100805.52
2018-09-18T05:41:44.145Z,100806.42
2018-09-18T05:44:12.784Z,100800.95
2018-09-18T05:46:41.334Z,100803.63
2018-09-18T05:49:09.831Z,100812.91
2018-09-18T05:51:38.375Z,100813.80
2018-09-18T05:54:06.916Z,100810.07
2018-09-18T05:56:35.689Z,100810.83
2018-09-18T05:59:04.243Z,100802.83
2018-09-18T06:01:32.728Z,100812.20
2018-09-18T06:04:01.251Z,100802.13
2018-09-18T06:06:29.749Z,100802.16
2018-09-18T06:08:58.731Z,100796.50
2018-09-18T06:11:27.205Z,100802.97
2018-09-18T06:13:55.741Z,100801.90
2018-09-18T06:16:24.248Z,100806.56
2018-09-18T06:18:52.943Z,100799.03
2018-09-18T06:21:21.581Z,100798.52
2018-09-18T06:23:50.228Z,100804.59
2018-09-18T06:26:18.815Z,100798.36
2018-09-18T06:28:47.522Z,100799.52
2018-09-18T06:31:16.013Z,100802.03
2018-09-18T06:33:44.501Z,100800.68
2018-09-18T06:36:13.202Z,100799.08
2018-09-18T06:38:41.701Z,100787.61
2018-09-18T06:41:10.212Z,100794.45
2018-09-18T06:43:38.781Z,100793.41
2018-09-18T06:46:07.707Z,100794.50
2018-09-18T06:48:36.599Z,100800.28
2018-09-18T06:51:05.106Z,100801.97
2018-09-18T06:53:33.644Z,100800.05
2018-09-18T06:56:02.170Z,100798.42
2018-09-18T06:58:30.762Z,100797.33
2018-09-18T07:00:59.411Z,100798.70
2018-09-18T07:03:27.931Z,100798.71
2018-09-18T07:05:56.460Z,100791.58
2018-09-18T07:08:25.220Z,100788.56
2018-09-18T07:10:53.698Z,100786.09
2018-09-18T07:13:22.202Z,100794.03
2018-09-18T07:15:50.709Z,100788.24
2018-09-18T07:18:19.227Z,100784.37
2018-09-18T07:20:47.809Z,100785.68
2018-09-18T07:23:16.307Z,100787.53
2018-09-18T07:25:44.931Z,100786.41
2018-09-18T07:28:14.621Z,100787.14
2018-09-18T07:30:43.150Z,100778.58
2018-09-18T07:33:11.647Z,100779.06
2018-09-18T07:35:40.154Z,100784.40
2018-09-18T07:38:08.863Z,100779.92
2018-09-18T07:40:37.346Z,100780.62
2018-09-18T07:43:06.107Z,100778.84
2018-09-18T07:45:34.609Z,100774.83
2018-09-18T07:48:03.076Z,100779.45
2018-09-18T07:50:31.945Z,100775.13
2018-09-18T07:53:00.432Z,100778.48
2018-09-18T07:55:28.982Z,100783.14
2018-09-18T07:57:57.476Z,100773.91
2018-09-18T08:00:25.993Z,100768.33
2018-09-18T08:02:54.547Z,100770.58
2018-09-18T08:05:23.165Z,100767.77
2018-09-18T08:07:51.692Z,100771.60
2018-09-18T08:10:20.238Z,100762.23
2018-09-18T08:12:48.731Z,100765.62
2018-09-18T08:15:23.585Z,100766.44
2018-09-18T08:17:52.088Z,100766.44
2018-09-18T08:20:20.579Z,100754.68
2018-09-18T08:22:49.182Z,100752.88
2018-09-18T08:25:17.811Z,100746.48
2018-09-18T08:27:46.247Z,100745.54
2018-09-18T08:30:14.775Z,100745.15
2018-09-18T08:32:43.407Z,100743.15
2018-09-18T08:35:11.841Z,100738.80
2018-09-18T08:37:40.316Z,100739.63
2018-09-18T08:40:09.076Z,100737.71
2018-09-18T08:42:38.003Z,100742.11
2018-09-18T08:45:06.691Z,100740.47
2018-09-18T08:47:35.816Z,100751.80
2018-09-18T08:50:04.647Z,100754.98
2018-09-18T08:52:33.157Z,100751.87
2018-09-18T08:55:01.701Z,100752.41
2018-09-18T08:57:30.259Z,100766.26
2018-09-18T08:59:58.945Z,100756.91
2018-09-18T09:02:28.201Z,100757.84
2018-09-18T09:04:56.723Z,100757.27
2018-09-18T09:07:25.456Z,100746.92
2018-09-18T09:09:54.071Z,100753.20
2018-09-18T09:12:22.606Z,100757.01
2018-09-18T09:14:51.148Z,100757.11
2018-09-18T09:17:19.645Z,100751.44
2018-09-18T09:19:48.127Z,100744.81
2018-09-18T09:22:17.004Z,100745.72
2018-09-18T09:24:45.553Z,100746.50
2018-09-18T09:27:14.051Z,100733.59
2018-09-18T09:29:42.613Z,100737.73
2018-09-18T09:32:11.176Z,100746.66
2018-09-18T09:34:39.623Z,100746.34
2018-09-18T09:37:08.193Z,100753.23
2018-09-18T09:39:36.634Z,100750.78
2018-09-18T09:42:05.174Z,100748.94
2018-09-18T09:44:33.660Z,100747.88
2018-09-18T09:47:02.125Z,100744.06
2018-09-18T09:49:30.653Z,100753.27
2018-09-18T09:51:59.361Z,100744.70
2018-09-18T09:54:27.845Z,100753.33
2018-09-18T09:56:56.366Z,100745.67
2018-09-18T09:59:25.013Z,100754.76
2018-09-18T10:01:58.809Z,100747.66
2018-09-18T10:04:27.319Z,100746.97
2018-09-18T10:06:55.851Z,100746.25
2018-09-18T10:09:24.357Z,100742.12
2018-09-18T10:11:52.853Z,100745.89
2018-09-18T10:14:21.752Z,100744.19
2018-09-18T10:16:50.205Z,100739.68
2018-09-18T10:19:18.793Z,100738.86
2018-09-18T10:21:47.323Z,100733.77
2018-09-18T10:24:15.864Z,100727.30
2018-09-18T10:26:44.468Z,100738.95
2018-09-18T10:29:12.940Z,100726.17
2018-09-18T10:31:41.800Z,100734.81
2018-09-18T10:34:10.295Z,100723.77
2018-09-18T10:36:38.828Z,100728.25
2018-09-18T10:39:08.996Z,100729.13
2018-09-18T10:41:37.545Z,100728.13
2018-09-18T10:44:06.082Z,100733.12
2018-09-18T10:46:34.597Z,100732.53
2018-09-18T10:49:03.179Z,100731.43
2018-09-18T10:51:31.932Z,100733.81
2018-09-18T10:54:00.432Z,100723.50
2018-09-18T10:56:28.925Z,100720.62
2018-09-18T10:58:57.797Z,100717.59
2018-09-18T11:01:26.331Z,100719.67
2018-09-18T11:03:55.034Z,100722.58
2018-09-18T11:06:23.591Z,100725.36
2018-09-18T11:08:52.135Z,100716.42
2018-09-18T11:11:20.688Z,100708.55
2018-09-18T11:13:49.310Z,100718.30
2018-09-18T11:16:17.700Z,100709.59
2018-09-18T11:18:46.279Z,100720.71
2018-09-18T11:21:14.908Z,100715.60
2018-09-18T11:23:43.472Z,100716.50
2018-09-18T11:26:11.931Z,100721.69
2018-09-18T11:28:40.511Z,100717.88
2018-09-18T11:31:09.085Z,100716.25
2018-09-18T11:33:37.648Z,100718.39
2018-09-18T11:36:06.272Z,100721.03
2018-09-18T11:38:34.769Z,100736.95
2018-09-18T11:41:03.362Z,100720.12
2018-09-18T11:43:31.894Z,100725.19
2018-09-18T11:46:00.621Z,100716.45
2018-09-18T11:48:29.015Z,100719.89
2018-09-18T11:50:57.924Z,100711.92
2018-09-18T11:53:26.434Z,100708.80
2018-09-18T11:55:55.084Z,100717.58
2018-09-18T11:58:23.663Z,100703.30
2018-09-18T12:00:52.302Z,100699.77
2018-09-18T12:03:20.865Z,100709.55
2018-09-18T12:05:49.485Z,100705.37
2018-09-18T12:08:18.052Z,100701.13
2018-09-18T12:10:46.552Z,100701.94
2018-09-18T12:13:15.083Z,100704.10
2018-09-18T12:15:43.592Z,100702.34
2018-09-18T12:18:12.195Z,100697.70
2018-09-18T12:20:40.757Z,100696.19
2018-09-18T12:23:09.363Z,100694.44
2018-09-18T12:25:37.970Z,100700.05
2018-09-18T12:28:06.473Z,100701.82
2018-09-18T12:30:35.942Z,100701.30
2018-09-18T12:33:04.725Z,100700.51
2018-09-18T12:35:33.368Z,100694.92
2018-09-18T12:38:01.850Z,100694.42
2018-09-18T12:40:30.369Z,100690.09
2018-09-18T12:42:58.924Z,100693.68
2018-09-18T12:45:27.469Z,100689.72
2018-09-18T12:47:56.043Z,100689.09
2018-09-18T12:50:24.675Z,100696.52
2018-09-18T12:52:53.052Z,100695.73
2018-09-18T12:55:21.610Z,100689.20
2018-09-18T12:57:50.157Z,100689.09
2018-09-18T13:00:18.847Z,100686.45
2018-09-18T13:02:47.274Z,100704.73
2018-09-18T13:05:15.850Z,100704.92
2018-09-18T13:07:44.358Z,100701.53
2018-09-18T13:10:12.924Z,100691.51
2018-09-18T13:12:41.571Z,100690.08
2018-09-18T13:15:10.084Z,100693.50
2018-09-18T13:17:38.846Z,100693.05
2018-09-18T13:20:07.408Z,100689.62
2018-09-18T13:22:35.944Z,100687.87
2018-09-18T13:25:04.881Z,100702.98
2018-09-18T13:27:33.390Z,100693.31
2018-09-18T13:30:01.956Z,100689.75
2018-09-18T13:32:30.453Z,100688.19
2018-09-18T13:34:58.980Z,100695.83
2018-09-18T13:37:27.534Z,100684.63
2018-09-18T13:39:56.065Z,100688.13
2018-09-18T13:42:24.571Z,100683.25
2018-09-18T13:44:53.184Z,100691.83
2018-09-18T13:47:21.768Z,100686.38
2018-09-18T13:49:50.317Z,100690.05
2018-09-18T13:52:18.875Z,100694.55
2018-09-18T13:54:47.396Z,100692.82
2018-09-18T13:57:15.932Z,100689.38
2018-09-18T13:59:44.538Z,100693.75
2018-09-18T14:02:13.069Z,100699.95
2018-09-18T14:04:41.632Z,100696.86
2018-09-18T14:07:10.407Z,100692.45
2018-09-18T14:09:38.960Z,100687.72
2018-09-18T14:12:07.591Z,100688.94
2018-09-18T14:14:36.181Z,100693.86
2018-09-18T14:17:04.716Z,100685.40
2018-09-18T14:19:33.186Z,100704.17
2018-09-18T14:22:01.768Z,100703.74
2018-09-18T14:24:30.293Z,100695.13
2018-09-18T14:26:58.829Z,100690.94
2018-09-18T14:29:27.376Z,100708.14
2018-09-18T14:31:55.898Z,100701.11
2018-09-18T14:34:24.461Z,100701.22
2018-09-18T14:36:53.257Z,100712.70
2018-09-18T14:39:21.885Z,100710.80
2018-09-18T14:41:50.519Z,100722.92
2018-09-18T14:44:19.159Z,100724.47
2018-09-18T14:46:47.742Z,100725.28
2018-09-18T14:49:16.329Z,100723.70
2018-09-18T14:51:44.862Z,100724.94
2018-09-18T14:54:13.601Z,100728.78
2018-09-18T14:56:42.120Z,100733.33
2018-09-18T14:59:10.729Z,100726.04
2018-09-18T15:01:39.335Z,100724.85
2018-09-18T15:04:08.096Z,100724.89
2018-09-18T15:06:36.663Z,100720.28
2018-09-18T15:09:09.145Z,100724.94
2018-09-18T15:11:37.749Z,100719.22
2018-09-18T15:14:06.411Z,100734.64
2018-09-18T15:16:35.389Z,100729.80
2018-09-18T15:19:04.039Z,100741.53
2018-09-18T15:21:32.580Z,100737.00
2018-09-18T15:24:01.163Z,100745.09
2018-09-18T15:26:29.665Z,100733.91
2018-09-18T15:28:58.173Z,100761.70
2018-09-18T15:31:26.698Z,100755.39
2018-09-18T15:33:55.259Z,100751.26
2018-09-18T15:36:23.842Z,100752.09
2018-09-18T15:38:52.446Z,100751.41
2018-09-18T15:41:20.925Z,100755.37
2018-09-18T15:43:49.488Z,100753.83
2018-09-18T15:46:19.855Z,100772.90
2018-09-18T15:48:48.377Z,100778.09
2018-09-18T15:51:17.002Z,100769.55
2018-09-18T15:53:45.542Z,100778.03
2018-09-18T15:56:14.039Z,100783.42
2018-09-18T15:58:42.583Z,100779.01
2018-09-18T16:01:11.181Z,100782.59
2018-09-18T16:03:39.706Z,100790.63
2018-09-18T16:06:08.292Z,100787.20
2018-09-18T16:08:36.857Z,100796.34
2018-09-18T16:11:05.382Z,100792.38
2018-09-18T16:13:34.022Z,100795.72
2018-09-18T16:16:02.664Z,100793.42
2018-09-18T16:18:31.199Z,100798.70
2018-09-18T16:20:59.723Z,100801.73
2018-09-18T16:23:28.252Z,100810.63
2018-09-18T16:25:56.825Z,100803.41
2018-09-18T16:28:25.323Z,100813.07
2018-09-18T16:30:54.015Z,100814.59
2018-09-18T16:33:22.564Z,100815.47
2018-09-18T16:35:51.093Z,100822.35
2018-09-18T16:38:19.566Z,100816.82
2018-09-18T16:40:48.257Z,100821.33
2018-09-18T16:43:16.710Z,100825.69
2018-09-18T16:45:45.317Z,100833.50
2018-09-18T16:48:13.852Z,100834.38
2018-09-18T16:50:42.617Z,100835.05
2018-09-18T16:53:11.204Z,100843.78
2018-09-18T16:55:39.681Z,100847.09
2018-09-18T16:58:08.345Z,100847.68
2018-09-18T17:00:36.964Z,100852.72
2018-09-18T17:03:05.816Z,100862.75
2018-09-18T17:05:34.340Z,100865.77
2018-09-18T17:08:02.909Z,100874.48
2018-09-18T17:10:31.563Z,100875.55
2018-09-18T17:13:00.035Z,100872.91
2018-09-18T17:15:28.573Z,100875.52
2018-09-18T17:17:57.105Z,100884.73
2018-09-18T17:20:25.624Z,100888.98
2018-09-18T17:22:54.252Z,100890.11
2018-09-18T17:25:22.951Z,100887.09
2018-09-18T17:27:51.502Z,100893.64
2018-09-18T17:30:20.056Z,100895.94
2018-09-18T17:32:48.606Z,100900.51
2018-09-18T17:35:17.138Z,100910.17
2018-09-18T17:37:45.666Z,100909.21
2018-09-18T17:40:14.275Z,100912.58
2018-09-18T17:42:42.872Z,100920.06
2018-09-18T17:45:11.428Z,100930.61
2018-09-18T17:47:39.943Z,100923.72
2018-09-18T17:50:08.508Z,100937.14
2018-09-18T17:52:37.089Z,100941.33
2018-09-18T17:55:05.793Z,100945.13
2018-09-18T17:57:34.414Z,100948.12
2018-09-18T18:00:03.024Z,100944.86
2018-09-18T18:02:31.578Z,100949.44
2018-09-18T18:05:00.219Z,100956.73
2018-09-18T18:07:28.823Z,100955.69
2018-09-18T18:09:57.366Z,100967.98
2018-09-18T18:12:26.893Z,100968.98
2018-09-18T18:14:55.575Z,100976.39
2018-09-18T18:17:24.157Z,100983.23
2018-09-18T18:19:52.621Z,100983.02
2018-09-18T18:22:21.397Z,100987.30
2018-09-18T18:24:50.168Z,100991.12
2018-09-18T18:27:18.699Z,100996.98
2018-09-18T18:29:47.225Z,101000.03
2018-09-18T18:32:15.800Z,101009.19
2018-09-18T18:34:44.467Z,101010.91
2018-09-18T18:37:13.057Z,101022.81
2018-09-18T18:39:41.681Z,101030.31
2018-09-18T18:42:10.393Z,101036.05
2018-09-18T18:44:39.196Z,101039.12
2018-09-18T18:47:07.807Z,101038.67
2018-09-18T18:49:37.863Z,101039.38
2018-09-18T18:52:07.208Z,101039.19
2018-09-18T18:54:36.021Z,101046.80
2018-09-18T18:57:05.103Z,101058.14
2018-09-18T18:59:33.735Z,101057.99
2018-09-18T19:02:02.910Z,101066.86
2018-09-18T19:04:31.869Z,101069.38
2018-09-18T19:07:00.647Z,101076.87
2018-09-18T19:09:29.700Z,101075.53
2018-09-18T19:11:58.353Z,101081.91
2018-09-18T19:14:27.075Z,101079.23
2018-09-18T19:16:55.682Z,101079.74
2018-09-18T19:19:25.018Z,101081.01
2018-09-18T19:21:54.051Z,101080.80
2018-09-18T19:24:22.661Z,101081.59
2018-09-18T19:26:51.289Z,101088.95
2018-09-18T19:29:19.861Z,101100.12
2018-09-18T19:31:48.429Z,101098.93
2018-09-18T19:34:17.001Z,101099.83
2018-09-18T19:36:46.068Z,101097.91
2018-09-18T19:39:14.746Z,101102.72
2018-09-18T19:41:43.292Z,101105.29
2018-09-18T19:44:11.948Z,101099.30
2018-09-18T19:46:41.202Z,101101.89
2018-09-18T19:49:10.155Z,101104.34
2018-09-18T19:51:39.824Z,101111.64
2018-09-18T19:54:08.361Z,101103.75
2018-09-18T19:56:37.033Z,101120.28
2018-09-18T19:59:05.590Z,101115.81
2018-09-18T20:01:34.281Z,101121.37
2018-09-18T20:04:02.962Z,101118.47
2018-09-18T20:06:31.657Z,101125.47
2018-09-18T20:09:00.318Z,101128.55
2018-09-18T20:11:29.262Z,101132.19
2018-09-18T20:13:57.928Z,101132.23
2018-09-18T20:16:27.152Z,101134.76
2018-09-18T20:18:55.786Z,101137.82
2018-09-18T20:21:24.414Z,101135.34
2018-09-18T20:23:53.032Z,101139.69
2018-09-18T20:26:21.606Z,101142.73
2018-09-18T20:28:50.331Z,101141.64
2018-09-18T20:31:18.844Z,101141.35
2018-09-18T20:33:47.376Z,101142.65
2018-09-18T20:36:16.170Z,101141.06
2018-09-18T20:38:44.660Z,101143.54
2018-09-18T20:41:13.299Z,101139.69
2018-09-18T20:43:42.070Z,101141.37
2018-09-18T20:46:10.573Z,101138.08
2018-09-18T20:48:39.063Z,101136.71
2018-09-18T20:51:07.577Z,101133.97
2018-09-18T20:53:36.273Z,101135.05
2018-09-18T20:56:04.843Z,101140.27
2018-09-18T20:58:33.403Z,101138.61
2018-09-18T21:01:02.239Z,101134.51
2018-09-18T21:03:30.740Z,101140.03
2018-09-18T21:05:59.226Z,101143.30
2018-09-18T21:08:27.824Z,101142.47
2018-09-18T21:10:56.457Z,101148.53
2018-09-18T21:13:25.317Z,101143.84
2018-09-18T21:15:53.837Z,101147.16
2018-09-18T21:18:22.355Z,101143.62
2018-09-18T21:20:51.016Z,101145.53
2018-09-18T21:23:19.457Z,101148.81
2018-09-18T21:26:05.724Z,101141.15
2018-09-18T21:28:34.418Z,101141.69
2018-09-18T21:31:02.915Z,101143.59
2018-09-18T21:33:32.076Z,101153.20
2018-09-18T21:36:01.109Z,101147.17
2018-09-18T21:38:30.017Z,101153.75
2018-09-18T21:40:58.945Z,101144.97
2018-09-18T21:43:28.321Z,101148.27
2018-09-18T21:45:56.876Z,101146.89
2018-09-18T21:48:25.469Z,101147.66
2018-09-18T21:50:53.994Z,101153.72
2018-09-18T21:53:22.619Z,101161.12
2018-09-18T21:55:51.165Z,101153.47
2018-09-18T21:58:19.706Z,101160.31
2018-09-18T22:00:48.267Z,101156.50
2018-09-18T22:03:16.797Z,101158.95
2018-09-18T22:05:45.294Z,101173.23
2018-09-18T22:08:13.851Z,101176.24
2018-09-18T22:10:42.375Z,101168.85
2018-09-18T22:13:10.861Z,101173.23
2018-09-18T22:15:39.369Z,101175.39
2018-09-18T22:18:08.037Z,101174.84
2018-09-18T22:20:36.688Z,101176.21
2018-09-18T22:23:05.260Z,101179.49
2018-09-18T22:25:34.135Z,101182.52
2018-09-18T22:28:02.619Z,101188.83
2018-09-18T22:30:31.274Z,101186.89
2018-09-18T22:32:59.948Z,101191.55
2018-09-18T22:35:28.445Z,101194.56
2018-09-18T22:37:57.352Z,101197.59
2018-09-18T22:40:25.877Z,101199.50
2018-09-18T22:42:54.520Z,101196.47
2018-09-18T22:45:23.066Z,101192.87
2018-09-18T22:47:51.614Z,101196.19
2018-09-18T22:50:20.128Z,101198.34
2018-09-18T22:52:48.693Z,101202.70
2018-09-18T22:55:17.193Z,101196.09
2018-09-18T22:57:45.810Z,101197.16
2018-09-18T23:00:14.369Z,101197.98
2018-09-18T23:02:42.885Z,101200.24
2018-09-18T23:05:11.547Z,101208.96
2018-09-18T23:07:40.012Z,101214.71
2018-09-18T23:10:08.506Z,101214.14
2018-09-18T23:12:37.093Z,101207.28
2018-09-18T23:15:05.662Z,101208.66
2018-09-18T23:17:34.184Z,101218.66
2018-09-18T23:20:03.229Z,101214.30
2018-09-18T23:22:31.703Z,101213.77
2018-09-18T23:25:00.212Z,101216.02
2018-09-18T23:27:28.754Z,101213.81
2018-09-18T23:29:57.393Z,101218.21
2018-09-18T23:32:26.066Z,101225.78
2018-09-18T23:34:54.533Z,101228.53
2018-09-18T23:37:23.468Z,101229.62
2018-09-18T23:39:51.949Z,101233.98
2018-09-18T23:42:20.530Z,101232.88
2018-09-18T23:44:48.977Z,101236.19
2018-09-18T23:47:17.548Z,101233.17
2018-09-18T23:49:46.124Z,101239.19
2018-09-18T23:52:15.178Z,101236.66
2018-09-18T23:54:43.774Z,101238.33
2018-09-18T23:57:12.312Z,101239.38
2018-09-18T23:59:40.925Z,101236.64
